Airport View

Enter AWOS ICAO identifier for current METAR.

ex. KFNL

KCSM 212253Z AUTO 22007KT 10SM SCT110 24/21 A2995 RMK AO2 RAE2159B33E43 SLP119 P0000 T02440206

21 Sep 2019 23:57

Frequency: 118.450

Phone: 580-562-4811

Other Area AWOS: KELK - KCLK - KHBR - KOJA

KCSM 211723Z 2118/2218 18019G26KT P6SM BKN018 FM212100 19021G29KT P6SM SCT035 BKN050 PROB30 2205/2209 2SM +TSRA OVC030CB